Marshall, Minnesota
Current Conditions -  °F | °C
As of 9:15 PM on Friday 31 Oct 2014 (Local Time) from KMML Reporting Station
Clear Clear  
Wind Chill: -7°   Ceiling: Unl
Heat Index: -3°   Visibility: 10mi
Dew Point: -11°   Wind: 6mph
Humidity: 55%   Direction: 170°S
Pressure: 30.43"   Gusts: NA
Location:  44.45°N, 95.79°W
Report Text: KMML 010215Z AUTO 17005KT 10SM CLR M03/M11 A3043 RMK AO1
Loading
Personal Weather Stations






























Interactive Weather Map New forecast layout! Learn more

10-Day Weather Forecast

Advertisements
Track Severe Weather on mobile